Time;durP1;ratioP1;P1;durP2;ratioP2;P2;SDS_P1;SDS_P2;PMS_P1;PMS_P2;Temp;Humidity;BMP_temperature;BMP_pressure;BME280_temperature;BME280_humidity;BME280_pressure;Samples;Min_cycle;Max_cycle;Signal;HPM_P1;HPM_P2
2022/05/22 00:01:15;;;;;;;8.55;4.00;;;;;;;;;;4916171;29;20044;-83
2022/05/22 00:03:41;;;;;;;8.57;3.53;;;;;;;;;;4915272;29;20052;-83
2022/05/22 00:06:07;;;;;;;9.43;3.72;;;;;;;;;;4916667;29;20052;-83
2022/05/22 00:08:33;;;;;;;12.13;3.97;;;;;;;;;;4918673;29;20048;-83
2022/05/22 00:10:59;;;;;;;7.68;3.22;;;;;;;;;;4918651;29;20098;-83
2022/05/22 00:13:25;;;;;;;10.57;4.10;;;;;;;;;;4918737;29;20044;-83
2022/05/22 00:18:35;;;;;;;10.25;3.83;;;;;;;;;;4918562;29;20191;-83
2022/05/22 00:21:01;;;;;;;11.43;4.07;;;;;;;;;;4918954;29;20226;-83
2022/05/22 00:23:31;;;;;;;10.15;3.80;;;;;;;;;;4918497;29;20514;-83
2022/05/22 00:25:58;;;;;;;10.13;3.90;;;;;;;;;;4918609;29;20551;-83
2022/05/22 00:28:24;;;;;;;13.85;4.20;;;;;;;;;;4918195;29;20115;-83
2022/05/22 00:30:50;;;;;;;8.48;3.70;;;;;;;;;;4918577;29;20060;-84
2022/05/22 00:33:16;;;;;;;11.32;4.22;;;;;;;;;;4918209;29;20051;-84
2022/05/22 00:35:42;;;;;;;9.88;4.57;;;;;;;;;;4918323;29;20119;-85
2022/05/22 00:38:09;;;;;;;10.57;4.00;;;;;;;;;;4902469;29;20048;-83
2022/05/22 00:40:35;;;;;;;12.35;4.05;;;;;;;;;;4918476;29;20071;-83
2022/05/22 00:43:01;;;;;;;10.50;4.18;;;;;;;;;;4919231;29;20488;-83
2022/05/22 00:45:27;;;;;;;9.52;3.63;;;;;;;;;;4918294;29;20075;-83
2022/05/22 00:47:55;;;;;;;12.13;3.60;;;;;;;;;;4917976;29;20052;-83
2022/05/22 00:50:22;;;;;;;10.80;3.60;;;;;;;;;;4918072;29;20076;-83
2022/05/22 00:52:50;;;;;;;11.23;4.03;;;;;;;;;;4919092;29;20040;-84
2022/05/22 00:55:22;;;;;;;11.88;3.92;;;;;;;;;;4918063;29;20039;-84
2022/05/22 00:57:52;;;;;;;11.43;3.92;;;;;;;;;;4917817;29;20057;-84
2022/05/22 01:00:20;;;;;;;10.98;3.80;;;;;;;;;;4918116;29;20043;-84
2022/05/22 01:05:32;;;;;;;11.60;4.13;;;;;;;;;;4919231;29;20076;-84
2022/05/22 01:08:00;;;;;;;10.18;3.70;;;;;;;;;;4917602;29;20044;-84
2022/05/22 01:10:33;;;;;;;9.40;3.90;;;;;;;;;;4917924;29;20071;-84
2022/05/22 01:12:59;;;;;;;10.10;3.78;;;;;;;;;;4917815;29;20122;-83
2022/05/22 01:15:25;;;;;;;11.18;4.30;;;;;;;;;;4917947;29;20070;-83
2022/05/22 01:17:53;;;;;;;10.18;3.55;;;;;;;;;;4917357;29;20460;-84
2022/05/22 01:20:19;;;;;;;8.52;3.30;;;;;;;;;;4917414;29;20079;-84
2022/05/22 01:22:45;;;;;;;9.23;3.78;;;;;;;;;;4917290;29;20048;-84
2022/05/22 01:25:12;;;;;;;12.27;3.65;;;;;;;;;;4918902;29;20127;-84
2022/05/22 01:27:39;;;;;;;7.82;3.20;;;;;;;;;;4917522;29;20044;-84
2022/05/22 01:30:09;;;;;;;8.30;3.60;;;;;;;;;;4917265;29;20060;-84
2022/05/22 01:32:36;;;;;;;9.73;4.00;;;;;;;;;;4901508;29;20135;-84
2022/05/22 01:35:02;;;;;;;8.95;4.18;;;;;;;;;;4918624;29;20044;-83
2022/05/22 01:37:28;;;;;;;11.35;4.07;;;;;;;;;;4918547;29;20060;-83
2022/05/22 01:39:54;;;;;;;9.68;3.63;;;;;;;;;;4917450;29;20036;-83
2022/05/22 01:42:20;;;;;;;8.80;3.75;;;;;;;;;;4917482;29;20089;-84
2022/05/22 01:44:47;;;;;;;11.32;4.13;;;;;;;;;;4916972;29;20051;-83
2022/05/22 01:47:13;;;;;;;12.25;4.38;;;;;;;;;;4917125;29;20127;-83
2022/05/22 01:49:39;;;;;;;8.48;3.97;;;;;;;;;;4916980;29;20127;-84
2022/05/22 01:52:05;;;;;;;10.05;4.13;;;;;;;;;;4917016;29;20133;-84
2022/05/22 01:54:31;;;;;;;8.20;3.78;;;;;;;;;;4916758;29;20099;-83
2022/05/22 01:56:57;;;;;;;9.32;4.00;;;;;;;;;;4916936;29;20435;-83
2022/05/22 01:59:23;;;;;;;8.98;4.00;;;;;;;;;;4916714;29;20076;-84
2022/05/22 02:01:49;;;;;;;8.85;3.95;;;;;;;;;;4916858;29;20436;-84
2022/05/22 02:04:15;;;;;;;10.07;4.47;;;;;;;;;;4900793;29;20044;-84
2022/05/22 02:08:19;;;;;;;12.20;4.93;;;;;;;;;;4918234;29;20050;-84
2022/05/22 02:09:26;;;;;;;9.98;4.65;;;;;;;;;;4917764;29;20411;-84
2022/05/22 02:11:52;;;;;;;12.50;4.68;;;;;;;;;;4916674;29;20059;-84
2022/05/22 02:14:19;;;;;;;10.68;5.00;;;;;;;;;;4917918;29;20043;-83
2022/05/22 02:16:45;;;;;;;12.82;5.03;;;;;;;;;;4916513;29;20059;-84
2022/05/22 02:19:11;;;;;;;12.60;5.03;;;;;;;;;;4917793;29;20044;-83
2022/05/22 02:21:37;;;;;;;11.73;4.72;;;;;;;;;;4916376;29;20052;-84
2022/05/22 02:24:05;;;;;;;9.38;4.47;;;;;;;;;;4916265;29;20063;-83
2022/05/22 02:26:31;;;;;;;9.68;4.57;;;;;;;;;;4900681;29;20088;-84
2022/05/22 02:28:57;;;;;;;8.52;4.72;;;;;;;;;;4915857;29;20127;-84
2022/05/22 02:31:23;;;;;;;8.05;4.22;;;;;;;;;;4900330;29;20064;-83
2022/05/22 02:33:49;;;;;;;8.48;4.15;;;;;;;;;;4900339;29;20054;-83
2022/05/22 02:36:15;;;;;;;7.43;3.70;;;;;;;;;;4916094;29;20095;-84
2022/05/22 02:38:41;;;;;;;8.60;4.20;;;;;;;;;;4917272;29;20050;-83
2022/05/22 02:41:10;;;;;;;8.48;3.72;;;;;;;;;;4916189;29;20055;-84
2022/05/22 02:43:36;;;;;;;9.55;4.47;;;;;;;;;;4900084;29;20051;-83
2022/05/22 02:46:02;;;;;;;8.05;4.30;;;;;;;;;;4916087;29;20079;-84
2022/05/22 02:48:28;;;;;;;9.32;4.20;;;;;;;;;;4915860;29;20098;-83
2022/05/22 02:50:54;;;;;;;9.05;5.05;;;;;;;;;;4915984;29;20127;-83
2022/05/22 02:53:20;;;;;;;9.70;4.35;;;;;;;;;;4915726;29;20523;-84
2022/05/22 02:55:46;;;;;;;7.03;3.90;;;;;;;;;;4916009;29;20129;-84
2022/05/22 02:58:12;;;;;;;7.13;3.15;;;;;;;;;;4915916;29;20048;-84
2022/05/22 03:00:38;;;;;;;6.63;3.40;;;;;;;;;;4915590;29;20059;-83
2022/05/22 03:03:07;;;;;;;5.82;3.22;;;;;;;;;;4917291;29;20052;-83
2022/05/22 03:08:17;;;;;;;8.20;3.60;;;;;;;;;;4917087;29;20048;-83
2022/05/22 03:10:44;;;;;;;6.97;3.33;;;;;;;;;;4915392;29;20408;-83
2022/05/22 03:13:11;;;;;;;9.27;4.68;;;;;;;;;;4915652;29;20051;-83
2022/05/22 03:15:37;;;;;;;10.10;5.05;;;;;;;;;;4915387;29;20076;-84
2022/05/22 03:18:03;;;;;;;8.45;4.95;;;;;;;;;;4915472;29;20068;-83
2022/05/22 03:20:30;;;;;;;11.95;5.50;;;;;;;;;;4915334;29;20119;-84
2022/05/22 03:22:57;;;;;;;8.02;5.10;;;;;;;;;;4915516;29;20179;-84
2022/05/22 03:25:23;;;;;;;8.63;4.40;;;;;;;;;;4915248;29;20043;-84
2022/05/22 03:27:50;;;;;;;8.80;4.60;;;;;;;;;;4915648;29;20395;-83
2022/05/22 03:30:16;;;;;;;9.65;4.47;;;;;;;;;;4921471;29;20107;-83
2022/05/22 03:32:43;;;;;;;7.55;4.22;;;;;;;;;;4918560;29;20048;-83
2022/05/22 03:35:09;;;;;;;8.68;5.30;;;;;;;;;;4918398;29;20054;-83
2022/05/22 03:37:35;;;;;;;8.07;4.28;;;;;;;;;;4918600;29;20407;-83
2022/05/22 03:40:01;;;;;;;10.95;5.20;;;;;;;;;;4918240;29;20040;-83
2022/05/22 03:42:27;;;;;;;11.27;5.25;;;;;;;;;;4922375;29;20103;-83
2022/05/22 03:44:54;;;;;;;10.45;5.07;;;;;;;;;;4922233;29;20035;-83
2022/05/22 03:47:20;;;;;;;10.57;5.95;;;;;;;;;;4922418;29;20075;-83
2022/05/22 03:49:47;;;;;;;9.30;5.50;;;;;;;;;;4922100;29;20043;-83
2022/05/22 03:52:13;;;;;;;12.30;6.07;;;;;;;;;;4906629;29;20047;-83
2022/05/22 03:54:39;;;;;;;11.80;5.35;;;;;;;;;;4939139;29;20067;-84
2022/05/22 03:57:05;;;;;;;15.10;6.10;;;;;;;;;;4906705;29;20487;-83
2022/05/22 03:59:32;;;;;;;10.02;5.60;;;;;;;;;;4921906;29;20512;-83
2022/05/22 04:01:59;;;;;;;10.40;4.82;;;;;;;;;;4922463;29;20051;-83
2022/05/22 04:04:25;;;;;;;7.35;3.88;;;;;;;;;;4921914;29;20048;-83
2022/05/22 04:06:51;;;;;;;5.40;2.45;;;;;;;;;;4922025;29;20388;-83
2022/05/22 04:09:18;;;;;;;6.68;2.75;;;;;;;;;;4921922;29;20059;-83
2022/05/22 04:11:44;;;;;;;5.78;2.63;;;;;;;;;;4906460;29;20055;-83
2022/05/22 04:14:10;;;;;;;4.22;2.20;;;;;;;;;;4921768;29;20509;-83
2022/05/22 04:16:36;;;;;;;4.70;2.30;;;;;;;;;;4921972;29;20055;-83
2022/05/22 04:19:03;;;;;;;5.30;2.25;;;;;;;;;;4938825;29;20043;-84
2022/05/22 04:21:30;;;;;;;5.47;2.35;;;;;;;;;;4906009;29;20095;-83
2022/05/22 04:26:40;;;;;;;8.60;4.55;;;;;;;;;;4938955;29;20079;-83
2022/05/22 04:29:06;;;;;;;9.93;4.32;;;;;;;;;;4921588;29;20486;-83
2022/05/22 04:31:33;;;;;;;8.90;4.68;;;;;;;;;;4921440;29;20055;-83
2022/05/22 04:33:59;;;;;;;9.60;4.28;;;;;;;;;;4921834;29;20075;-83
2022/05/22 04:36:25;;;;;;;8.43;4.47;;;;;;;;;;4921349;29;20580;-83
2022/05/22 04:38:52;;;;;;;9.13;4.25;;;;;;;;;;4921496;29;20044;-83
2022/05/22 04:41:18;;;;;;;9.55;4.30;;;;;;;;;;4921378;29;20402;-83
2022/05/22 04:43:44;;;;;;;9.07;4.38;;;;;;;;;;4921385;29;20050;-83
2022/05/22 04:46:13;;;;;;;12.65;4.30;;;;;;;;;;4905828;29;20036;-83
2022/05/22 04:48:39;;;;;;;7.97;4.32;;;;;;;;;;4921318;29;20119;-83
2022/05/22 04:51:07;;;;;;;9.50;4.20;;;;;;;;;;4920795;29;20178;-83
2022/05/22 04:53:33;;;;;;;9.18;4.00;;;;;;;;;;4938368;29;20044;-83
2022/05/22 04:56:00;;;;;;;7.53;3.75;;;;;;;;;;4921233;29;20387;-83
2022/05/22 04:58:27;;;;;;;9.18;4.00;;;;;;;;;;4921113;29;20194;-83
2022/05/22 05:00:53;;;;;;;10.48;4.32;;;;;;;;;;4921039;29;20215;-83
2022/05/22 05:03:19;;;;;;;7.65;3.72;;;;;;;;;;4938273;29;20139;-83
2022/05/22 05:05:52;;;;;;;8.18;3.67;;;;;;;;;;4920931;29;20036;-83
2022/05/22 05:08:18;;;;;;;8.60;3.83;;;;;;;;;;4920997;29;20051;-83
2022/05/22 05:10:47;;;;;;;8.48;3.78;;;;;;;;;;4920711;29;20384;-83
2022/05/22 05:13:13;;;;;;;11.63;4.38;;;;;;;;;;4920991;29;20048;-83
2022/05/22 05:15:40;;;;;;;11.30;4.28;;;;;;;;;;4920847;29;20134;-84
2022/05/22 05:18:06;;;;;;;9.63;4.20;;;;;;;;;;4938219;29;20062;-83
2022/05/22 05:20:32;;;;;;;10.77;4.82;;;;;;;;;;4904982;29;20093;-84
2022/05/22 05:22:58;;;;;;;11.25;4.90;;;;;;;;;;4920657;29;20533;-84
2022/05/22 05:25:24;;;;;;;15.07;4.90;;;;;;;;;;4937483;29;20086;-84
2022/05/22 05:27:50;;;;;;;11.93;5.15;;;;;;;;;;4937722;29;20047;-83
2022/05/22 05:30:17;;;;;;;14.82;5.05;;;;;;;;;;4919979;29;20562;-83
2022/05/22 05:32:43;;;;;;;14.52;5.25;;;;;;;;;;4920597;29;20057;-83
2022/05/22 05:35:11;;;;;;;14.30;5.35;;;;;;;;;;4904615;29;20435;-83
2022/05/22 05:37:38;;;;;;;15.07;5.30;;;;;;;;;;4920512;29;20183;-83
2022/05/22 05:40:05;;;;;;;16.02;6.18;;;;;;;;;;4920326;29;20402;-83
2022/05/22 05:42:34;;;;;;;13.75;5.80;;;;;;;;;;4904655;29;20061;-83
2022/05/22 05:45:01;;;;;;;13.05;5.85;;;;;;;;;;4920014;29;20078;-83
2022/05/22 05:47:27;;;;;;;13.15;6.03;;;;;;;;;;4920399;29;20071;-83
2022/05/22 05:49:53;;;;;;;19.02;7.03;;;;;;;;;;4920197;29;20080;-84
2022/05/22 05:52:19;;;;;;;14.52;6.35;;;;;;;;;;4937032;29;20046;-83
2022/05/22 05:54:45;;;;;;;14.50;6.15;;;;;;;;;;4920128;29;20040;-84
2022/05/22 05:57:17;;;;;;;15.45;7.20;;;;;;;;;;4904084;29;20044;-83
2022/05/22 05:59:43;;;;;;;13.18;6.82;;;;;;;;;;4904312;29;20139;-83
2022/05/22 06:02:12;;;;;;;16.60;7.00;;;;;;;;;;4937088;29;20067;-83
2022/05/22 06:04:39;;;;;;;13.57;6.65;;;;;;;;;;4919106;29;20094;-83
2022/05/22 06:07:05;;;;;;;14.85;7.43;;;;;;;;;;4919707;29;20444;-83
2022/05/22 06:09:31;;;;;;;15.60;7.60;;;;;;;;;;4919905;29;20502;-83
2022/05/22 06:11:57;;;;;;;20.63;8.50;;;;;;;;;;4903796;29;20043;-84
2022/05/22 06:14:23;;;;;;;19.95;7.78;;;;;;;;;;4919781;29;20094;-83
2022/05/22 06:16:50;;;;;;;21.10;7.90;;;;;;;;;;4919513;29;20047;-84
2022/05/22 06:19:53;;;;;;;15.30;7.35;;;;;;;;;;4919657;29;20043;-83
2022/05/22 06:22:05;;;;;;;18.75;7.55;;;;;;;;;;4919366;29;20039;-83
2022/05/22 06:24:34;;;;;;;16.42;8.20;;;;;;;;;;4919461;29;20377;-83
2022/05/22 06:27:00;;;;;;;17.95;8.05;;;;;;;;;;4919296;29;20148;-83
2022/05/22 06:29:26;;;;;;;19.02;7.80;;;;;;;;;;4919449;29;20040;-84
2022/05/22 06:31:53;;;;;;;18.38;7.20;;;;;;;;;;4935678;29;20067;-83
2022/05/22 06:34:22;;;;;;;16.88;7.88;;;;;;;;;;4935015;29;20050;-83
2022/05/22 06:36:48;;;;;;;20.35;7.32;;;;;;;;;;4934572;29;20440;-83
2022/05/22 06:41:58;;;;;;;15.25;6.88;;;;;;;;;;4936049;29;20075;-83
2022/05/22 06:44:24;;;;;;;14.65;7.20;;;;;;;;;;4934637;29;20059;-80
2022/05/22 06:46:50;;;;;;;16.45;6.70;;;;;;;;;;4935108;29;20423;-83
2022/05/22 06:49:16;;;;;;;15.50;5.95;;;;;;;;;;4934873;29;20069;-83
2022/05/22 06:51:42;;;;;;;21.65;6.30;;;;;;;;;;4934383;29;20052;-83
2022/05/22 06:54:08;;;;;;;18.08;7.32;;;;;;;;;;4934835;29;20469;-83
2022/05/22 06:56:34;;;;;;;19.13;6.63;;;;;;;;;;4934442;29;20040;-84
2022/05/22 06:59:00;;;;;;;15.23;6.47;;;;;;;;;;4919022;29;20487;-83
2022/05/22 07:01:26;;;;;;;16.50;6.45;;;;;;;;;;4934726;29;20044;-83
2022/05/22 07:03:52;;;;;;;14.55;5.53;;;;;;;;;;4934871;29;20043;-84
2022/05/22 07:06:19;;;;;;;18.67;6.20;;;;;;;;;;4934429;29;20552;-83
2022/05/22 07:08:44;;;;;;;17.83;5.35;;;;;;;;;;4934615;29;20047;-82
2022/05/22 07:13:55;;;;;;;15.80;4.47;;;;;;;;;;4935875;29;20432;-83
2022/05/22 07:16:21;;;;;;;15.13;4.97;;;;;;;;;;4934112;29;20051;-84
2022/05/22 07:18:47;;;;;;;15.57;4.53;;;;;;;;;;4923261;29;20514;-83
2022/05/22 07:21:13;;;;;;;10.82;2.83;;;;;;;;;;4934184;29;20051;-83
2022/05/22 07:23:39;;;;;;;14.32;4.43;;;;;;;;;;4934751;29;20167;-82
2022/05/22 07:26:05;;;;;;;16.08;4.43;;;;;;;;;;4935717;29;20044;-83
2022/05/22 07:28:31;;;;;;;15.00;5.07;;;;;;;;;;4918607;29;20058;-83
2022/05/22 07:30:57;;;;;;;13.75;4.90;;;;;;;;;;4918508;29;20059;-85
2022/05/22 07:33:23;;;;;;;14.68;4.38;;;;;;;;;;4918541;29;20498;-82
2022/05/22 07:35:56;;;;;;;14.35;4.70;;;;;;;;;;4935952;29;20047;-86
2022/05/22 07:38:23;;;;;;;13.15;4.40;;;;;;;;;;4918321;29;20462;-83
2022/05/22 07:40:49;;;;;;;10.50;4.63;;;;;;;;;;4918802;29;20043;-83
2022/05/22 07:43:16;;;;;;;11.63;4.57;;;;;;;;;;4918429;29;20079;-83
2022/05/22 07:45:42;;;;;;;14.85;4.85;;;;;;;;;;4918442;29;20047;-83
2022/05/22 07:48:08;;;;;;;15.65;4.68;;;;;;;;;;4918261;29;20062;-84
2022/05/22 07:50:34;;;;;;;12.10;5.00;;;;;;;;;;4918390;29;20099;-84
2022/05/22 07:53:00;;;;;;;15.48;4.97;;;;;;;;;;4918258;29;20459;-84
2022/05/22 07:55:26;;;;;;;15.20;5.15;;;;;;;;;;4918440;29;20050;-84
2022/05/22 07:57:52;;;;;;;10.60;4.40;;;;;;;;;;4918192;29;20044;-84
2022/05/22 08:00:19;;;;;;;14.98;4.10;;;;;;;;;;4918542;29;20048;-84
2022/05/22 08:02:45;;;;;;;12.93;3.90;;;;;;;;;;4918444;29;20092;-84
2022/05/22 08:05:12;;;;;;;14.30;4.20;;;;;;;;;;4918325;29;20044;-85
2022/05/22 08:07:38;;;;;;;11.18;3.63;;;;;;;;;;4918394;29;20063;-84
2022/05/22 08:10:05;;;;;;;13.23;3.05;;;;;;;;;;4918246;29;20486;-84
2022/05/22 08:12:38;;;;;;;11.75;3.08;;;;;;;;;;4918463;29;20058;-83
2022/05/22 08:15:04;;;;;;;8.68;3.15;;;;;;;;;;4918176;29;20083;-84
2022/05/22 08:17:35;;;;;;;10.60;2.83;;;;;;;;;;4935268;29;20040;-84
2022/05/22 08:20:02;;;;;;;10.15;2.88;;;;;;;;;;4918176;29;20043;-84
2022/05/22 08:22:28;;;;;;;16.98;3.42;;;;;;;;;;4917888;29;20051;-84
2022/05/22 08:24:54;;;;;;;13.43;2.95;;;;;;;;;;4918574;29;20040;-84
2022/05/22 08:27:20;;;;;;;10.13;2.72;;;;;;;;;;4919809;29;20047;-84
2022/05/22 08:29:45;;;;;;;11.20;2.95;;;;;;;;;;4938422;29;20051;-84
2022/05/22 08:32:11;;;;;;;15.13;3.83;;;;;;;;;;4921453;29;20047;-84
2022/05/22 08:34:37;;;;;;;10.07;2.78;;;;;;;;;;4921579;29;20418;-84
2022/05/22 08:37:03;;;;;;;11.02;3.20;;;;;;;;;;4937327;29;20044;-84
2022/05/22 08:39:29;;;;;;;8.88;2.60;;;;;;;;;;4921561;29;20055;-84
2022/05/22 08:41:58;;;;;;;9.68;2.95;;;;;;;;;;4921219;29;20039;-84
2022/05/22 08:44:33;;;;;;;10.82;2.63;;;;;;;;;;4921701;29;20152;-84
2022/05/22 08:47:01;;;;;;;11.98;3.15;;;;;;;;;;4921288;29;20056;-83
2022/05/22 08:49:42;;;;;;;10.25;2.67;;;;;;;;;;4921260;29;20098;-83
2022/05/22 08:52:10;;;;;;;7.93;2.67;;;;;;;;;;4921066;29;20054;-84
2022/05/22 08:54:42;;;;;;;13.07;3.50;;;;;;;;;;4921371;29;20055;-84
2022/05/22 09:00:06;;;;;;;12.80;2.58;;;;;;;;;;4921076;29;20052;-84
2022/05/22 09:02:35;;;;;;;10.75;2.63;;;;;;;;;;4920826;29;20047;-84
2022/05/22 09:05:01;;;;;;;10.90;3.28;;;;;;;;;;4921015;29;20047;-84
2022/05/22 09:07:40;;;;;;;11.52;2.70;;;;;;;;;;4920826;29;20047;-84
2022/05/22 09:10:15;;;;;;;10.35;2.63;;;;;;;;;;4936979;29;20044;-84
2022/05/22 09:12:47;;;;;;;12.20;2.83;;;;;;;;;;4920707;29;20040;-84
2022/05/22 09:15:26;;;;;;;9.75;2.30;;;;;;;;;;4921077;29;20064;-83
2022/05/22 09:17:59;;;;;;;11.07;2.47;;;;;;;;;;4937911;29;20046;-84
2022/05/22 09:20:32;;;;;;;11.27;2.58;;;;;;;;;;4920712;29;20082;-84
2022/05/22 09:23:14;;;;;;;10.75;2.53;;;;;;;;;;4920557;29;20063;-84
2022/05/22 09:25:53;;;;;;;10.23;2.63;;;;;;;;;;4920718;29;20042;-84
2022/05/22 09:28:35;;;;;;;8.20;2.42;;;;;;;;;;4937727;29;20055;-78
2022/05/22 09:31:01;;;;;;;11.73;2.67;;;;;;;;;;4920519;29;20545;-83
2022/05/22 09:33:35;;;;;;;7.68;2.22;;;;;;;;;;4937575;29;20079;-84
2022/05/22 09:36:19;;;;;;;9.40;1.70;;;;;;;;;;4936307;29;20082;-84
2022/05/22 09:38:45;;;;;;;9.10;2.00;;;;;;;;;;4937277;29;20102;-84
2022/05/22 09:41:25;;;;;;;8.95;2.22;;;;;;;;;;4920397;29;20059;-84
2022/05/22 09:44:00;;;;;;;9.27;2.20;;;;;;;;;;4920465;29;20487;-84
2022/05/22 09:46:44;;;;;;;8.55;1.75;;;;;;;;;;4937596;29;20035;-84
2022/05/22 09:49:29;;;;;;;7.75;1.75;;;;;;;;;;4920020;29;20048;-84
2022/05/22 09:52:12;;;;;;;8.00;1.70;;;;;;;;;;4937334;29;20046;-84
2022/05/22 09:54:53;;;;;;;10.60;1.85;;;;;;;;;;4919986;29;20056;-84
2022/05/22 09:57:34;;;;;;;10.07;1.63;;;;;;;;;;4918663;29;20047;-84
2022/05/22 10:00:09;;;;;;;8.88;1.88;;;;;;;;;;4920044;29;20103;-84
2022/05/22 10:02:35;;;;;;;;;;;;;;;;;;4918967;29;20069;-84
2022/05/22 10:05:21;;;;;;;8.82;1.70;;;;;;;;;;4920008;29;19919;-84
2022/05/22 10:08:03;;;;;;;10.35;1.83;;;;;;;;;;4918694;29;20051;-84
2022/05/22 10:10:37;;;;;;;8.85;1.50;;;;;;;;;;4920104;29;20056;-84
2022/05/22 10:13:06;;;;;;;7.60;1.60;;;;;;;;;;4919248;29;20054;-84
2022/05/22 10:15:43;;;;;;;8.50;1.60;;;;;;;;;;4920285;29;20479;-83
2022/05/22 10:18:20;;;;;;;6.90;1.30;;;;;;;;;;4935613;29;20075;-83
2022/05/22 10:21:24;;;;;;;4.50;1.10;;;;;;;;;;4919681;29;20051;-84
2022/05/22 10:24:00;;;;;;;7.28;1.50;;;;;;;;;;4862206;29;20044;-83
2022/05/22 10:26:58;;;;;;;6.82;1.73;;;;;;;;;;4861539;29;20237;-83
2022/05/22 10:29:32;;;;;;;6.40;1.60;;;;;;;;;;4868643;29;20452;-84
2022/05/22 10:32:08;;;;;;;9.82;1.70;;;;;;;;;;4918270;29;20055;-83
2022/05/22 10:34:40;;;;;;;7.32;1.40;;;;;;;;;;4919170;29;20051;-84
2022/05/22 10:37:12;;;;;;;8.30;1.63;;;;;;;;;;4917884;29;20558;-84
2022/05/22 10:39:38;;;;;;;8.35;1.70;;;;;;;;;;4919258;29;20052;-84
2022/05/22 10:45:03;;;;;;;6.32;1.48;;;;;;;;;;4935958;29;20056;-83
2022/05/22 10:47:30;;;;;;;8.55;1.70;;;;;;;;;;4935402;29;20147;-84
2022/05/22 10:49:58;;;;;;;8.45;1.60;;;;;;;;;;4918670;29;20083;-83
2022/05/22 10:52:26;;;;;;;6.07;1.40;;;;;;;;;;4918036;29;20082;-84
2022/05/22 10:54:53;;;;;;;10.55;2.10;;;;;;;;;;4918901;29;20077;-84
2022/05/22 10:57:21;;;;;;;6.00;1.40;;;;;;;;;;4935063;29;20071;-84
2022/05/22 10:59:47;;;;;;;9.38;1.98;;;;;;;;;;4918889;29;20047;-84
2022/05/22 11:02:32;;;;;;;5.53;1.25;;;;;;;;;;4917962;29;20052;-84
2022/05/22 11:04:59;;;;;;;11.00;1.77;;;;;;;;;;4918783;29;20047;-84
2022/05/22 11:07:30;;;;;;;10.55;1.77;;;;;;;;;;4918311;29;20044;-84
2022/05/22 11:09:57;;;;;;;8.40;1.85;;;;;;;;;;4918744;29;20044;-84
2022/05/22 11:12:27;;;;;;;7.57;1.40;;;;;;;;;;4918950;29;20431;-85
2022/05/22 11:15:04;;;;;;;6.05;1.70;;;;;;;;;;4918649;29;20499;-84
2022/05/22 11:17:30;;;;;;;5.82;1.52;;;;;;;;;;4918946;29;20627;-84
2022/05/22 11:19:57;;;;;;;9.20;1.40;;;;;;;;;;4918387;29;20147;-84
2022/05/22 11:22:44;;;;;;;6.50;1.52;;;;;;;;;;4935741;29;20505;-84
2022/05/22 11:25:22;;;;;;;8.15;1.50;;;;;;;;;;4918157;29;20402;-85
2022/05/22 11:28:06;;;;;;;6.22;1.45;;;;;;;;;;4919087;29;20047;-84
2022/05/22 11:30:44;;;;;;;8.27;1.20;;;;;;;;;;4935360;29;20078;-84
2022/05/22 11:33:29;;;;;;;10.18;1.33;;;;;;;;;;4918495;29;20480;-84
2022/05/22 11:36:14;;;;;;;5.32;1.40;;;;;;;;;;4918574;29;20054;-84
2022/05/22 11:39:01;;;;;;;8.40;1.60;;;;;;;;;;4918149;29;20099;-84
2022/05/22 11:41:36;;;;;;;7.88;1.60;;;;;;;;;;4918678;29;20122;-85
2022/05/22 11:44:02;;;;;;;7.70;1.83;;;;;;;;;;4935634;29;20040;-84
2022/05/22 11:46:50;;;;;;;6.95;1.40;;;;;;;;;;4918382;29;20054;-83
2022/05/22 11:49:38;;;;;;;5.25;1.08;;;;;;;;;;4918248;29;20115;-86
2022/05/22 11:52:04;;;;;;;9.10;1.83;;;;;;;;;;4902847;29;20043;-84
2022/05/22 11:54:49;;;;;;;8.05;3.83;;;;;;;;;;4935208;29;20035;-85
2022/05/22 11:57:22;;;;;;;8.98;1.85;;;;;;;;;;4918524;29;20488;-85
2022/05/22 11:59:58;;;;;;;4.95;1.30;;;;;;;;;;4918003;29;20052;-85
2022/05/22 12:02:42;;;;;;;6.78;1.45;;;;;;;;;;4920172;29;20103;-83
2022/05/22 12:05:14;;;;;;;7.88;1.33;;;;;;;;;;4921922;29;20044;-84
2022/05/22 12:08:00;;;;;;;7.55;1.70;;;;;;;;;;4922169;29;20050;-84
2022/05/22 12:10:33;;;;;;;8.90;1.50;;;;;;;;;;4921752;29;20179;-85
2022/05/22 12:12:59;;;;;;;7.60;1.20;;;;;;;;;;4922276;29;20066;-84
2022/05/22 12:15:45;;;;;;;7.30;1.42;;;;;;;;;;4921747;29;20403;-84
2022/05/22 12:18:20;;;;;;;6.20;1.20;;;;;;;;;;4921948;29;20056;-85
2022/05/22 12:20:49;;;;;;;12.00;1.90;;;;;;;;;;4921587;29;20470;-83
2022/05/22 12:23:38;;;;;;;5.50;1.15;;;;;;;;;;4921787;29;20051;-85
2022/05/22 12:26:08;;;;;;;8.95;2.20;;;;;;;;;;4928655;29;20052;-84
2022/05/22 12:28:40;;;;;;;7.65;1.48;;;;;;;;;;4938992;29;20134;-84
2022/05/22 12:31:08;;;;;;;8.48;1.58;;;;;;;;;;4921336;29;20068;-84
2022/05/22 12:33:35;;;;;;;8.60;1.75;;;;;;;;;;4921867;29;20476;-84
2022/05/22 12:36:03;;;;;;;5.75;1.25;;;;;;;;;;4921664;29;20118;-84
2022/05/22 12:38:29;;;;;;;8.70;1.70;;;;;;;;;;4921521;29;20039;-85
2022/05/22 12:41:01;;;;;;;6.88;1.73;;;;;;;;;;4921285;29;20127;-84
2022/05/22 12:43:28;;;;;;;7.90;1.40;;;;;;;;;;4921597;29;20407;-84
2022/05/22 12:45:56;;;;;;;5.15;1.20;;;;;;;;;;4905617;29;20504;-84
2022/05/22 12:48:27;;;;;;;5.60;1.42;;;;;;;;;;4938627;29;20131;-84
2022/05/22 12:51:05;;;;;;;5.80;1.40;;;;;;;;;;4938268;29;20471;-84
2022/05/22 12:53:32;;;;;;;9.07;1.30;;;;;;;;;;4921322;29;20188;-84
2022/05/22 12:56:16;;;;;;;6.88;1.55;;;;;;;;;;4920951;29;20047;-84
2022/05/22 12:58:44;;;;;;;8.63;1.50;;;;;;;;;;4921178;29;20408;-84
2022/05/22 13:01:24;;;;;;;9.07;1.58;;;;;;;;;;4920792;29;20055;-84
2022/05/22 13:03:53;;;;;;;7.03;1.65;;;;;;;;;;4938201;29;20075;-84
2022/05/22 13:06:25;;;;;;;6.32;1.50;;;;;;;;;;4920861;29;20191;-84
2022/05/22 13:09:02;;;;;;;7.30;1.58;;;;;;;;;;4938040;29;20102;-84
2022/05/22 13:11:42;;;;;;;7.32;1.77;;;;;;;;;;4920622;29;20093;-84
2022/05/22 13:14:28;;;;;;;8.52;1.27;;;;;;;;;;4920791;29;20052;-84
2022/05/22 13:16:54;;;;;;;7.80;1.95;;;;;;;;;;4905208;29;20079;-84
2022/05/22 13:19:21;;;;;;;7.35;1.77;;;;;;;;;;4920833;29;20483;-85
2022/05/22 13:21:47;;;;;;;7.95;1.67;;;;;;;;;;4920559;29;20039;-84
2022/05/22 13:24:16;;;;;;;10.82;1.88;;;;;;;;;;4938047;29;20095;-85
2022/05/22 13:26:43;;;;;;;6.97;1.50;;;;;;;;;;4920891;29;20174;-87
2022/05/22 13:29:12;;;;;;;6.38;1.45;;;;;;;;;;4920982;29;20379;-85
2022/05/22 13:31:42;;;;;;;7.97;1.67;;;;;;;;;;4920244;29;20055;-84
2022/05/22 13:34:16;;;;;;;7.68;1.80;;;;;;;;;;4920514;29;20377;-85
2022/05/22 13:36:48;;;;;;;10.55;2.13;;;;;;;;;;4920313;29;20360;-84
2022/05/22 13:39:17;;;;;;;6.93;1.90;;;;;;;;;;4920821;29;20487;-85
2022/05/22 13:42:02;;;;;;;6.68;2.22;;;;;;;;;;4920179;29;20126;-84
2022/05/22 13:44:47;;;;;;;8.60;1.67;;;;;;;;;;4920696;29;20051;-84
2022/05/22 13:47:18;;;;;;;9.25;1.73;;;;;;;;;;4920630;29;20051;-84
2022/05/22 13:52:49;;;;;;;9.27;1.58;;;;;;;;;;4920279;29;20051;-85
2022/05/22 13:55:22;;;;;;;6.82;1.45;;;;;;;;;;4937149;29;20491;-84
2022/05/22 13:57:57;;;;;;;6.22;1.20;;;;;;;;;;4920022;29;20454;-85
2022/05/22 14:00:25;;;;;;;9.07;1.35;;;;;;;;;;4936804;29;20118;-84
2022/05/22 14:03:02;;;;;;;6.20;1.48;;;;;;;;;;4937338;29;20036;-85
2022/05/22 14:05:36;;;;;;;7.13;1.50;;;;;;;;;;4920040;29;20062;-84
2022/05/22 14:08:08;;;;;;;8.00;1.80;;;;;;;;;;4919900;29;20058;-84
2022/05/22 14:10:35;;;;;;;8.18;1.50;;;;;;;;;;4919653;29;20411;-84
2022/05/22 14:13:13;;;;;;;7.93;1.38;;;;;;;;;;4919843;29;20043;-84
2022/05/22 14:15:39;;;;;;;8.25;1.90;;;;;;;;;;4919571;29;20094;-84
2022/05/22 14:18:13;;;;;;;5.95;1.50;;;;;;;;;;4919744;29;20047;-84
2022/05/22 14:20:41;;;;;;;7.55;1.83;;;;;;;;;;4919605;29;20075;-84
2022/05/22 14:23:18;;;;;;;10.30;1.52;;;;;;;;;;4936718;29;20491;-84
2022/05/22 14:25:44;;;;;;;9.02;1.80;;;;;;;;;;4918561;29;20079;-84
2022/05/22 14:28:11;;;;;;;6.57;1.52;;;;;;;;;;4919656;29;20052;-85
2022/05/22 14:30:39;;;;;;;7.95;1.80;;;;;;;;;;4903420;29;20397;-84
2022/05/22 14:33:12;;;;;;;6.22;1.65;;;;;;;;;;4919557;29;20084;-84
2022/05/22 14:35:40;;;;;;;6.35;1.77;;;;;;;;;;4919104;29;20075;-84
2022/05/22 14:38:11;;;;;;;6.70;1.60;;;;;;;;;;4919556;29;20048;-84
2022/05/22 14:40:57;;;;;;;7.45;1.70;;;;;;;;;;4919100;29;20044;-85
2022/05/22 14:43:32;;;;;;;7.05;1.55;;;;;;;;;;4919691;29;20515;-85
2022/05/22 14:46:00;;;;;;;6.28;1.48;;;;;;;;;;4919318;29;20118;-84
2022/05/22 14:48:27;;;;;;;3.90;1.05;;;;;;;;;;4919299;29;20491;-85
2022/05/22 14:50:55;;;;;;;5.43;1.30;;;;;;;;;;4918989;29;20051;-85
2022/05/22 14:53:25;;;;;;;8.82;1.33;;;;;;;;;;4918073;29;20062;-84
2022/05/22 14:55:52;;;;;;;5.38;1.30;;;;;;;;;;4936228;29;20130;-84
2022/05/22 14:58:21;;;;;;;9.68;1.42;;;;;;;;;;4919073;29;20230;-84
2022/05/22 15:00:52;;;;;;;6.25;1.30;;;;;;;;;;4918714;29;20056;-84
2022/05/22 15:03:18;;;;;;;6.28;1.35;;;;;;;;;;4936093;29;20051;-84
2022/05/22 15:05:51;;;;;;;6.60;1.80;;;;;;;;;;4903209;29;20046;-84
2022/05/22 15:08:22;;;;;;;6.80;1.50;;;;;;;;;;4919245;29;20114;-84
2022/05/22 15:10:48;;;;;;;6.82;1.50;;;;;;;;;;4918728;29;20051;-84
2022/05/22 15:13:17;;;;;;;4.90;1.40;;;;;;;;;;4919129;29;20056;-84
2022/05/22 15:15:44;;;;;;;6.65;1.73;;;;;;;;;;4918573;29;20051;-84
2022/05/22 15:19:48;;;;;;;5.90;1.33;;;;;;;;;;4903111;29;20083;-85